PAL1878 RPMD-RPLL
Flight info
| Callsign | PAL1878 |
|---|---|
| Flight time | N/A |
| Altitude | 38000 |
| Route | ANKIN3R ANKIN B473 LAIYA LAIYA5R |
| Aircraft | B77W/H-SDE1E2E3FGHIJ2J3J4J5M1RWXY/LB1D1 |
Departure
| Time | N/A |
|---|---|
| Airport | Francisco Bangoy International Airport (RPMD) |
Arrival
| Time | 2026-05-07 07:27 |
|---|---|
| Airport | Ninoy Aquino International Airport (RPLL) |
| Time | Latitude | Longitude | Altitude | Speed | Heading |
|---|---|---|---|---|---|
| 2026-05-07 06:34 | 9.76817 | 123.82606 | 37796 ft | 484 kts | 330° |
| 2026-05-07 06:34 | 9.79687 | 123.80936 | 37804 ft | 484 kts | 330° |
| 2026-05-07 06:35 | 9.85582 | 123.77505 | 37801 ft | 484 kts | 330° |
| 2026-05-07 06:35 | 9.91409 | 123.74113 | 37809 ft | 486 kts | 330° |
| 2026-05-07 06:36 | 9.97319 | 123.70667 | 37811 ft | 486 kts | 330° |
| 2026-05-07 06:36 | 10.03225 | 123.67221 | 37813 ft | 486 kts | 330° |
| 2026-05-07 06:37 | 10.09136 | 123.63771 | 37816 ft | 486 kts | 330° |
| 2026-05-07 06:37 | 10.14671 | 123.60539 | 37807 ft | 486 kts | 330° |
| 2026-05-07 06:38 | 10.20545 | 123.57108 | 37804 ft | 485 kts | 329° |
| 2026-05-07 06:38 | 10.26364 | 123.53708 | 37806 ft | 483 kts | 330° |
| 2026-05-07 06:39 | 10.32116 | 123.50348 | 37802 ft | 484 kts | 330° |
| 2026-05-07 06:39 | 10.37961 | 123.46938 | 37805 ft | 484 kts | 329° |
| 2026-05-07 06:40 | 10.43827 | 123.43514 | 37818 ft | 485 kts | 329° |
| 2026-05-07 06:40 | 10.49694 | 123.40088 | 37827 ft | 482 kts | 329° |
| 2026-05-07 06:41 | 10.55501 | 123.36695 | 37838 ft | 481 kts | 329° |
| 2026-05-07 06:41 | 10.61332 | 123.33287 | 37852 ft | 481 kts | 329° |
| 2026-05-07 06:42 | 10.67148 | 123.29888 | 37866 ft | 482 kts | 329° |
| 2026-05-07 06:42 | 10.72987 | 123.26475 | 37872 ft | 482 kts | 329° |
| 2026-05-07 06:43 | 10.78821 | 123.23059 | 37869 ft | 481 kts | 329° |
| 2026-05-07 06:43 | 10.84645 | 123.19644 | 37840 ft | 482 kts | 329° |
| 2026-05-07 06:44 | 10.90468 | 123.16228 | 37820 ft | 480 kts | 329° |
| 2026-05-07 06:44 | 10.96276 | 123.12820 | 37813 ft | 480 kts | 329° |
| 2026-05-07 06:45 | 11.02062 | 123.09424 | 37808 ft | 479 kts | 329° |
| 2026-05-07 06:45 | 11.06885 | 123.06592 | 37808 ft | 480 kts | 329° |
| 2026-05-07 06:46 | 11.13717 | 123.02578 | 37808 ft | 481 kts | 329° |
| 2026-05-07 06:46 | 11.19522 | 122.99166 | 37807 ft | 480 kts | 329° |
| 2026-05-07 06:47 | 11.25305 | 122.95766 | 37812 ft | 480 kts | 329° |
| 2026-05-07 06:47 | 11.31108 | 122.92352 | 37810 ft | 479 kts | 329° |
| 2026-05-07 06:48 | 11.36865 | 122.88963 | 37811 ft | 479 kts | 329° |
| 2026-05-07 06:48 | 11.42672 | 122.85543 | 37815 ft | 479 kts | 329° |
| 2026-05-07 06:49 | 11.48460 | 122.82133 | 37817 ft | 479 kts | 329° |
| 2026-05-07 06:49 | 11.54217 | 122.78740 | 37812 ft | 480 kts | 329° |
| 2026-05-07 06:50 | 11.60016 | 122.75320 | 37813 ft | 480 kts | 329° |
| 2026-05-07 06:50 | 11.63763 | 122.72879 | 37817 ft | 480 kts | 325° |
| 2026-05-07 06:51 | 11.70271 | 122.68446 | 37816 ft | 479 kts | 325° |
| 2026-05-07 06:51 | 11.76733 | 122.64066 | 37809 ft | 478 kts | 325° |
| 2026-05-07 06:52 | 11.82326 | 122.60287 | 37806 ft | 478 kts | 325° |
| 2026-05-07 06:52 | 11.87890 | 122.56529 | 37811 ft | 478 kts | 325° |
| 2026-05-07 06:53 | 11.93467 | 122.52765 | 37813 ft | 478 kts | 325° |
| 2026-05-07 06:53 | 11.99030 | 122.49010 | 37807 ft | 479 kts | 325° |
| 2026-05-07 06:54 | 12.04583 | 122.45261 | 37809 ft | 479 kts | 325° |
| 2026-05-07 06:54 | 12.10092 | 122.41539 | 37808 ft | 478 kts | 325° |
| 2026-05-07 06:55 | 12.15638 | 122.37791 | 37806 ft | 478 kts | 325° |
| 2026-05-07 06:55 | 12.21178 | 122.34045 | 37809 ft | 477 kts | 325° |
| 2026-05-07 06:56 | 12.26734 | 122.30286 | 37809 ft | 477 kts | 324° |
| 2026-05-07 06:56 | 12.32266 | 122.26543 | 37812 ft | 476 kts | 324° |
| 2026-05-07 06:57 | 12.37792 | 122.22797 | 37812 ft | 476 kts | 324° |
| 2026-05-07 06:57 | 12.43300 | 122.18975 | 37814 ft | 476 kts | 324° |
| 2026-05-07 06:58 | 12.48771 | 122.15170 | 37816 ft | 476 kts | 324° |
| 2026-05-07 06:58 | 12.54250 | 122.11360 | 37817 ft | 476 kts | 324° |
| 2026-05-07 06:59 | 12.59749 | 122.07536 | 37817 ft | 476 kts | 324° |
| 2026-05-07 06:59 | 12.65220 | 122.03730 | 37820 ft | 476 kts | 324° |
| 2026-05-07 07:00 | 12.70737 | 121.99890 | 37821 ft | 476 kts | 323° |
| 2026-05-07 07:00 | 12.76180 | 121.96101 | 37825 ft | 476 kts | 323° |
| 2026-05-07 07:01 | 12.81693 | 121.92261 | 37824 ft | 475 kts | 323° |
| 2026-05-07 07:01 | 12.87161 | 121.88449 | 37827 ft | 475 kts | 324° |
| 2026-05-07 07:02 | 12.92651 | 121.84621 | 37827 ft | 475 kts | 323° |
| 2026-05-07 07:02 | 12.98055 | 121.80851 | 37221 ft | 469 kts | 324° |
| 2026-05-07 07:03 | 13.00774 | 121.78953 | 36200 ft | 474 kts | 324° |
| 2026-05-07 07:03 | 13.03543 | 121.77019 | 35386 ft | 473 kts | 324° |
| 2026-05-07 07:03 | 13.06237 | 121.75137 | 34612 ft | 473 kts | 324° |
| 2026-05-07 07:03 | 13.08968 | 121.73229 | 33773 ft | 474 kts | 324° |
| 2026-05-07 07:04 | 13.11706 | 121.71317 | 32930 ft | 474 kts | 324° |
| 2026-05-07 07:04 | 13.14454 | 121.69395 | 32122 ft | 475 kts | 324° |
| 2026-05-07 07:04 | 13.17182 | 121.67488 | 31311 ft | 477 kts | 324° |
| 2026-05-07 07:04 | 13.19915 | 121.65577 | 30502 ft | 478 kts | 325° |
| 2026-05-07 07:05 | 13.22659 | 121.63657 | 29996 ft | 472 kts | 325° |
| 2026-05-07 07:05 | 13.25370 | 121.61761 | 29493 ft | 467 kts | 325° |
| 2026-05-07 07:05 | 13.28081 | 121.59862 | 28935 ft | 462 kts | 326° |
| 2026-05-07 07:05 | 13.30744 | 121.57998 | 28350 ft | 459 kts | 326° |
| 2026-05-07 07:06 | 13.33409 | 121.56132 | 27769 ft | 455 kts | 326° |
| 2026-05-07 07:06 | 13.36020 | 121.54303 | 27198 ft | 451 kts | 326° |
| 2026-05-07 07:06 | 13.38623 | 121.52479 | 26621 ft | 448 kts | 326° |
| 2026-05-07 07:06 | 13.41223 | 121.50657 | 26028 ft | 445 kts | 326° |
| 2026-05-07 07:07 | 13.43787 | 121.48859 | 25476 ft | 440 kts | 326° |
| 2026-05-07 07:07 | 13.46273 | 121.47115 | 25333 ft | 426 kts | 327° |
| 2026-05-07 07:07 | 13.48690 | 121.45420 | 25244 ft | 412 kts | 327° |
| 2026-05-07 07:07 | 13.51043 | 121.43769 | 25096 ft | 399 kts | 327° |
| 2026-05-07 07:08 | 13.53307 | 121.42180 | 24932 ft | 388 kts | 327° |
| 2026-05-07 07:08 | 13.55501 | 121.40640 | 24776 ft | 377 kts | 327° |
| 2026-05-07 07:08 | 13.57634 | 121.39141 | 24618 ft | 366 kts | 326° |
| 2026-05-07 07:08 | 13.59707 | 121.37614 | 24210 ft | 364 kts | 325° |
| 2026-05-07 07:09 | 13.61760 | 121.36076 | 23705 ft | 364 kts | 325° |
| 2026-05-07 07:09 | 13.63815 | 121.34537 | 23228 ft | 363 kts | 325° |
| 2026-05-07 07:09 | 13.65861 | 121.33007 | 22776 ft | 362 kts | 325° |
| 2026-05-07 07:09 | 13.67879 | 121.31500 | 22345 ft | 360 kts | 325° |
| 2026-05-07 07:10 | 13.69907 | 121.29987 | 21921 ft | 358 kts | 325° |
| 2026-05-07 07:10 | 13.71918 | 121.28487 | 21497 ft | 356 kts | 325° |
| 2026-05-07 07:10 | 13.73949 | 121.26971 | 21072 ft | 355 kts | 325° |
| 2026-05-07 07:10 | 13.75934 | 121.25491 | 20626 ft | 354 kts | 325° |
| 2026-05-07 07:11 | 13.77942 | 121.23994 | 20191 ft | 353 kts | 325° |
| 2026-05-07 07:11 | 13.79917 | 121.22520 | 19769 ft | 352 kts | 325° |
| 2026-05-07 07:11 | 13.81906 | 121.21036 | 19333 ft | 351 kts | 325° |
| 2026-05-07 07:11 | 13.83871 | 121.19569 | 18902 ft | 350 kts | 326° |
| 2026-05-07 07:12 | 13.85853 | 121.18089 | 18475 ft | 348 kts | 325° |
| 2026-05-07 07:12 | 13.87812 | 121.16627 | 18044 ft | 348 kts | 325° |
| 2026-05-07 07:12 | 13.89766 | 121.15167 | 17609 ft | 347 kts | 325° |
| 2026-05-07 07:12 | 13.91734 | 121.13697 | 17171 ft | 346 kts | 325° |
| 2026-05-07 07:13 | 13.93674 | 121.12248 | 16733 ft | 345 kts | 325° |
| 2026-05-07 07:13 | 13.95599 | 121.10809 | 16312 ft | 344 kts | 326° |
| 2026-05-07 07:13 | 13.97553 | 121.09349 | 15883 ft | 342 kts | 326° |
| 2026-05-07 07:13 | 13.99466 | 121.07918 | 15440 ft | 341 kts | 326° |
| 2026-05-07 07:14 | 14.01396 | 121.06475 | 15025 ft | 340 kts | 326° |
| 2026-05-07 07:14 | 14.03317 | 121.05039 | 14603 ft | 339 kts | 325° |
| 2026-05-07 07:14 | 14.05219 | 121.03616 | 14121 ft | 337 kts | 325° |
| 2026-05-07 07:14 | 14.07107 | 121.02203 | 13785 ft | 330 kts | 325° |
| 2026-05-07 07:15 | 14.08966 | 121.00813 | 13315 ft | 331 kts | 325° |
| 2026-05-07 07:15 | 14.10826 | 120.99421 | 12874 ft | 330 kts | 326° |
| 2026-05-07 07:15 | 14.12700 | 120.98018 | 12492 ft | 328 kts | 325° |
| 2026-05-07 07:15 | 14.14545 | 120.96636 | 12170 ft | 325 kts | 326° |
| 2026-05-07 07:16 | 14.16344 | 120.95288 | 12043 ft | 314 kts | 326° |
| 2026-05-07 07:16 | 14.18133 | 120.94080 | 11912 ft | 303 kts | 331° |
| 2026-05-07 07:16 | 14.19973 | 120.92984 | 11548 ft | 303 kts | 332° |
| 2026-05-07 07:16 | 14.21808 | 120.91910 | 11148 ft | 304 kts | 332° |
| 2026-05-07 07:17 | 14.23618 | 120.90769 | 10697 ft | 303 kts | 321° |
| 2026-05-07 07:17 | 14.24910 | 120.89083 | 10345 ft | 295 kts | 294° |
| 2026-05-07 07:17 | 14.25429 | 120.87061 | 10074 ft | 289 kts | 274° |
| 2026-05-07 07:17 | 14.25177 | 120.85008 | 9664 ft | 292 kts | 253° |
| 2026-05-07 07:18 | 14.24413 | 120.83061 | 9243 ft | 294 kts | 243° |
| 2026-05-07 07:18 | 14.23470 | 120.81217 | 8860 ft | 296 kts | 240° |
| 2026-05-07 07:18 | 14.22686 | 120.79250 | 8454 ft | 294 kts | 262° |
| 2026-05-07 07:18 | 14.22751 | 120.77202 | 8121 ft | 282 kts | 286° |
| 2026-05-07 07:19 | 14.23558 | 120.75405 | 7827 ft | 276 kts | 309° |
| 2026-05-07 07:19 | 14.24930 | 120.74017 | 7442 ft | 275 kts | 325° |
| 2026-05-07 07:19 | 14.26519 | 120.72907 | 7097 ft | 276 kts | 330° |
| 2026-05-07 07:19 | 14.28190 | 120.71886 | 6731 ft | 277 kts | 332° |
| 2026-05-07 07:20 | 14.29664 | 120.71104 | 6421 ft | 275 kts | 344° |
| 2026-05-07 07:20 | 14.31539 | 120.70901 | 6074 ft | 268 kts | 11° |
| 2026-05-07 07:20 | 14.33267 | 120.71553 | 5749 ft | 262 kts | 37° |
| 2026-05-07 07:20 | 14.34480 | 120.72922 | 5456 ft | 257 kts | 58° |
| 2026-05-07 07:21 | 14.35397 | 120.74483 | 5161 ft | 256 kts | 60° |
| 2026-05-07 07:21 | 14.36310 | 120.76079 | 4848 ft | 255 kts | 60° |
| 2026-05-07 07:21 | 14.37211 | 120.77659 | 4547 ft | 254 kts | 60° |
| 2026-05-07 07:21 | 14.38102 | 120.79228 | 4248 ft | 254 kts | 60° |
| 2026-05-07 07:22 | 14.38981 | 120.80781 | 3923 ft | 246 kts | 60° |
| 2026-05-07 07:22 | 14.39832 | 120.82282 | 3642 ft | 233 kts | 60° |
| 2026-05-07 07:22 | 14.40628 | 120.83683 | 3383 ft | 221 kts | 60° |
| 2026-05-07 07:22 | 14.41377 | 120.85005 | 3135 ft | 199 kts | 60° |
| 2026-05-07 07:23 | 14.42031 | 120.86166 | 2932 ft | 189 kts | 61° |
| 2026-05-07 07:23 | 14.42673 | 120.87312 | 2707 ft | 180 kts | 61° |
| 2026-05-07 07:23 | 14.43282 | 120.88405 | 2489 ft | 171 kts | 61° |
| 2026-05-07 07:23 | 14.43855 | 120.89429 | 2284 ft | 159 kts | 62° |
| 2026-05-07 07:24 | 14.44400 | 120.90404 | 2084 ft | 150 kts | 62° |
| 2026-05-07 07:24 | 14.44902 | 120.91303 | 1908 ft | 139 kts | 62° |
| 2026-05-07 07:24 | 14.45379 | 120.92152 | 1741 ft | 134 kts | 62° |
| 2026-05-07 07:24 | 14.45847 | 120.92994 | 1570 ft | 135 kts | 62° |
| 2026-05-07 07:25 | 14.46795 | 120.94688 | 1224 ft | 138 kts | 62° |
| 2026-05-07 07:25 | 14.47275 | 120.95543 | 1054 ft | 137 kts | 62° |
| 2026-05-07 07:25 | 14.47762 | 120.96416 | 876 ft | 140 kts | 64° |
| 2026-05-07 07:26 | 14.48257 | 120.97298 | 691 ft | 145 kts | 64° |
| 2026-05-07 07:26 | 14.48757 | 120.98200 | 526 ft | 143 kts | 64° |
| 2026-05-07 07:26 | 14.49274 | 120.99092 | 329 ft | 144 kts | 63° |
| 2026-05-07 07:26 | 14.49774 | 120.99989 | 160 ft | 143 kts | 64° |
| 2026-05-07 07:27 | 14.50225 | 121.00809 | 89 ft | 128 kts | 64° |
| 2026-05-07 07:27 | 14.50614 | 121.01505 | 88 ft | 92 kts | 60° |
| 2026-05-07 07:27 | 14.50873 | 121.01969 | 88 ft | 57 kts | 62° |
| 2026-05-07 07:27 | 14.51017 | 121.02187 | 87 ft | 32 kts | 43° |
| 2026-05-07 07:28 | 14.51110 | 121.02275 | 88 ft | 9 kts | 43° |
| 2026-05-07 07:28 | 14.51167 | 121.02299 | 88 ft | 8 kts | 346° |
| 2026-05-07 07:28 | 14.51186 | 121.02252 | 88 ft | 8 kts | 251° |
| 2026-05-07 07:28 | 14.51158 | 121.02200 | 88 ft | 8 kts | 239° |
| 2026-05-07 07:29 | 14.51129 | 121.02147 | 88 ft | 8 kts | 240° |
| 2026-05-07 07:29 | 14.51098 | 121.02093 | 87 ft | 8 kts | 240° |
| 2026-05-07 07:29 | 14.51094 | 121.02084 | 88 ft | 0 kts | 240° |
| 2026-05-07 07:30 | 14.51078 | 121.02055 | 88 ft | 9 kts | 240° |
| 2026-05-07 07:30 | 14.51040 | 121.01987 | 88 ft | 10 kts | 240° |
| 2026-05-07 07:30 | 14.51003 | 121.01920 | 88 ft | 10 kts | 240° |
| 2026-05-07 07:30 | 14.50967 | 121.01854 | 88 ft | 11 kts | 240° |
| 2026-05-07 07:31 | 14.50923 | 121.01776 | 88 ft | 12 kts | 240° |
| 2026-05-07 07:31 | 14.50881 | 121.01700 | 88 ft | 10 kts | 240° |
| 2026-05-07 07:31 | 14.50849 | 121.01642 | 87 ft | 8 kts | 240° |
| 2026-05-07 07:31 | 14.50814 | 121.01580 | 88 ft | 11 kts | 240° |
| 2026-05-07 07:32 | 14.50771 | 121.01502 | 88 ft | 13 kts | 240° |
| 2026-05-07 07:32 | 14.50720 | 121.01410 | 87 ft | 15 kts | 239° |
| 2026-05-07 07:32 | 14.50661 | 121.01305 | 88 ft | 17 kts | 241° |
| 2026-05-07 07:32 | 14.50608 | 121.01208 | 87 ft | 14 kts | 240° |
| 2026-05-07 07:33 | 14.50565 | 121.01132 | 87 ft | 10 kts | 240° |
| 2026-05-07 07:33 | 14.50530 | 121.01069 | 87 ft | 10 kts | 239° |
| 2026-05-07 07:33 | 14.50487 | 121.00993 | 87 ft | 12 kts | 240° |
| 2026-05-07 07:33 | 14.50450 | 121.00926 | 87 ft | 8 kts | 240° |
| 2026-05-07 07:34 | 14.50433 | 121.00880 | 87 ft | 5 kts | 271° |
| 2026-05-07 07:34 | 14.50447 | 121.00851 | 88 ft | 4 kts | 319° |
| 2026-05-07 07:34 | 14.50488 | 121.00822 | 87 ft | 9 kts | 319° |
| 2026-05-07 07:34 | 14.50511 | 121.00761 | 87 ft | 7 kts | 278° |
| 2026-05-07 07:35 | 14.50516 | 121.00726 | 88 ft | 0 kts | 277° |
| 2026-05-07 07:35 | 14.50516 | 121.00725 | 87 ft | 0 kts | 277° |